sensor_id;sensor_type;location;lat;lon;timestamp;P1;durP1;ratioP1;P2;durP2;ratioP2
18796;SDS011;9526;52.612;13.300;2023-03-01T00:00:16;34.07;;;17.80;;
18796;SDS011;9526;52.612;13.300;2023-03-01T00:02:40;33.97;;;15.53;;
18796;SDS011;9526;52.612;13.300;2023-03-01T00:05:06;28.87;;;14.17;;
18796;SDS011;9526;52.612;13.300;2023-03-01T00:07:30;27.10;;;13.43;;
18796;SDS011;9526;52.612;13.300;2023-03-01T00:09:53;28.93;;;13.80;;
18796;SDS011;9526;52.612;13.300;2023-03-01T00:12:17;33.07;;;14.07;;
18796;SDS011;9526;52.612;13.300;2023-03-01T00:14:41;28.20;;;13.50;;
18796;SDS011;9526;52.612;13.300;2023-03-01T00:17:04;31.30;;;15.23;;
18796;SDS011;9526;52.612;13.300;2023-03-01T00:19:28;24.93;;;13.00;;
18796;SDS011;9526;52.612;13.300;2023-03-01T00:21:55;24.83;;;12.40;;
18796;SDS011;9526;52.612;13.300;2023-03-01T00:24:18;27.13;;;13.60;;
18796;SDS011;9526;52.612;13.300;2023-03-01T00:26:42;27.57;;;12.83;;
18796;SDS011;9526;52.612;13.300;2023-03-01T00:29:06;27.17;;;13.07;;
18796;SDS011;9526;52.612;13.300;2023-03-01T00:31:30;24.87;;;13.53;;
18796;SDS011;9526;52.612;13.300;2023-03-01T00:33:55;25.70;;;13.13;;
18796;SDS011;9526;52.612;13.300;2023-03-01T00:36:20;24.40;;;13.97;;
18796;SDS011;9526;52.612;13.300;2023-03-01T00:38:45;28.93;;;13.93;;
18796;SDS011;9526;52.612;13.300;2023-03-01T00:41:10;31.83;;;14.67;;
18796;SDS011;9526;52.612;13.300;2023-03-01T00:43:35;29.73;;;14.73;;
18796;SDS011;9526;52.612;13.300;2023-03-01T00:46:00;27.27;;;14.03;;
18796;SDS011;9526;52.612;13.300;2023-03-01T00:48:24;27.20;;;14.50;;
18796;SDS011;9526;52.612;13.300;2023-03-01T00:50:48;28.73;;;14.53;;
18796;SDS011;9526;52.612;13.300;2023-03-01T00:53:12;31.40;;;14.93;;
18796;SDS011;9526;52.612;13.300;2023-03-01T00:55:37;32.00;;;14.03;;
18796;SDS011;9526;52.612;13.300;2023-03-01T00:58:00;28.37;;;14.57;;
18796;SDS011;9526;52.612;13.300;2023-03-01T01:00:24;31.47;;;14.63;;
18796;SDS011;9526;52.612;13.300;2023-03-01T01:02:49;27.00;;;13.60;;
18796;SDS011;9526;52.612;13.300;2023-03-01T01:05:13;27.57;;;14.03;;
18796;SDS011;9526;52.612;13.300;2023-03-01T01:07:42;25.53;;;12.80;;
18796;SDS011;9526;52.612;13.300;2023-03-01T01:10:06;28.17;;;12.40;;
18796;SDS011;9526;52.612;13.300;2023-03-01T01:12:39;23.93;;;12.57;;
18796;SDS011;9526;52.612;13.300;2023-03-01T01:15:03;26.33;;;12.57;;
18796;SDS011;9526;52.612;13.300;2023-03-01T01:17:28;26.17;;;12.73;;
18796;SDS011;9526;52.612;13.300;2023-03-01T01:19:51;22.63;;;12.30;;
18796;SDS011;9526;52.612;13.300;2023-03-01T01:22:15;23.97;;;12.17;;
18796;SDS011;9526;52.612;13.300;2023-03-01T01:24:39;31.40;;;13.13;;
18796;SDS011;9526;52.612;13.300;2023-03-01T01:27:03;25.73;;;12.97;;
18796;SDS011;9526;52.612;13.300;2023-03-01T01:29:30;25.43;;;12.37;;
18796;SDS011;9526;52.612;13.300;2023-03-01T01:31:53;28.30;;;13.40;;
18796;SDS011;9526;52.612;13.300;2023-03-01T01:34:17;30.73;;;14.10;;
18796;SDS011;9526;52.612;13.300;2023-03-01T01:36:43;34.03;;;14.17;;
18796;SDS011;9526;52.612;13.300;2023-03-01T01:39:10;26.17;;;13.17;;
18796;SDS011;9526;52.612;13.300;2023-03-01T01:41:34;28.03;;;13.13;;
18796;SDS011;9526;52.612;13.300;2023-03-01T01:44:15;27.90;;;13.33;;
18796;SDS011;9526;52.612;13.300;2023-03-01T01:46:43;28.30;;;12.63;;
18796;SDS011;9526;52.612;13.300;2023-03-01T01:49:14;22.47;;;12.03;;
18796;SDS011;9526;52.612;13.300;2023-03-01T01:51:48;22.73;;;11.90;;
18796;SDS011;9526;52.612;13.300;2023-03-01T01:54:19;29.57;;;12.43;;
18796;SDS011;9526;52.612;13.300;2023-03-01T01:56:48;24.80;;;11.90;;
18796;SDS011;9526;52.612;13.300;2023-03-01T01:59:17;25.30;;;12.87;;
18796;SDS011;9526;52.612;13.300;2023-03-01T02:01:47;25.33;;;12.53;;
18796;SDS011;9526;52.612;13.300;2023-03-01T02:04:10;25.00;;;12.73;;
18796;SDS011;9526;52.612;13.300;2023-03-01T02:06:36;27.00;;;13.00;;
18796;SDS011;9526;52.612;13.300;2023-03-01T02:09:05;25.77;;;12.80;;
18796;SDS011;9526;52.612;13.300;2023-03-01T02:11:34;28.63;;;13.17;;
18796;SDS011;9526;52.612;13.300;2023-03-01T02:13:59;26.47;;;13.57;;
18796;SDS011;9526;52.612;13.300;2023-03-01T02:16:23;27.00;;;13.53;;
18796;SDS011;9526;52.612;13.300;2023-03-01T02:18:50;29.27;;;13.37;;
18796;SDS011;9526;52.612;13.300;2023-03-01T02:21:17;25.80;;;13.03;;
18796;SDS011;9526;52.612;13.300;2023-03-01T02:24:06;27.63;;;12.93;;
18796;SDS011;9526;52.612;13.300;2023-03-01T02:26:45;26.67;;;13.17;;
18796;SDS011;9526;52.612;13.300;2023-03-01T02:29:13;29.57;;;13.57;;
18796;SDS011;9526;52.612;13.300;2023-03-01T02:31:36;32.07;;;14.70;;
18796;SDS011;9526;52.612;13.300;2023-03-01T02:34:06;30.43;;;14.57;;
18796;SDS011;9526;52.612;13.300;2023-03-01T02:36:34;32.30;;;15.37;;
18796;SDS011;9526;52.612;13.300;2023-03-01T02:39:00;40.57;;;18.47;;
18796;SDS011;9526;52.612;13.300;2023-03-01T02:41:27;43.17;;;21.00;;
18796;SDS011;9526;52.612;13.300;2023-03-01T02:43:55;42.53;;;19.70;;
18796;SDS011;9526;52.612;13.300;2023-03-01T02:46:21;41.47;;;18.77;;
18796;SDS011;9526;52.612;13.300;2023-03-01T02:48:47;37.73;;;18.13;;
18796;SDS011;9526;52.612;13.300;2023-03-01T02:51:19;36.30;;;16.67;;
18796;SDS011;9526;52.612;13.300;2023-03-01T02:54:00;38.23;;;17.90;;
18796;SDS011;9526;52.612;13.300;2023-03-01T02:56:38;37.27;;;17.33;;
18796;SDS011;9526;52.612;13.300;2023-03-01T02:59:03;32.63;;;15.80;;
18796;SDS011;9526;52.612;13.300;2023-03-01T03:01:30;31.77;;;16.67;;
18796;SDS011;9526;52.612;13.300;2023-03-01T03:04:00;36.83;;;17.20;;
18796;SDS011;9526;52.612;13.300;2023-03-01T03:06:25;37.03;;;17.27;;
18796;SDS011;9526;52.612;13.300;2023-03-01T03:08:49;36.33;;;17.00;;
18796;SDS011;9526;52.612;13.300;2023-03-01T03:11:13;38.73;;;17.40;;
18796;SDS011;9526;52.612;13.300;2023-03-01T03:13:36;36.77;;;17.80;;
18796;SDS011;9526;52.612;13.300;2023-03-01T03:16:09;41.20;;;17.07;;
18796;SDS011;9526;52.612;13.300;2023-03-01T03:18:34;36.90;;;17.57;;
18796;SDS011;9526;52.612;13.300;2023-03-01T03:20:58;36.87;;;17.83;;
18796;SDS011;9526;52.612;13.300;2023-03-01T03:23:22;39.63;;;17.97;;
18796;SDS011;9526;52.612;13.300;2023-03-01T03:25:47;39.13;;;17.97;;
18796;SDS011;9526;52.612;13.300;2023-03-01T03:28:12;33.73;;;16.47;;
18796;SDS011;9526;52.612;13.300;2023-03-01T03:30:37;36.53;;;17.00;;
18796;SDS011;9526;52.612;13.300;2023-03-01T03:33:03;34.07;;;16.10;;
18796;SDS011;9526;52.612;13.300;2023-03-01T03:35:29;36.30;;;16.70;;
18796;SDS011;9526;52.612;13.300;2023-03-01T03:37:56;35.77;;;16.33;;
18796;SDS011;9526;52.612;13.300;2023-03-01T03:40:24;39.27;;;17.00;;
18796;SDS011;9526;52.612;13.300;2023-03-01T03:42:50;39.07;;;16.83;;
18796;SDS011;9526;52.612;13.300;2023-03-01T03:45:13;34.03;;;16.40;;
18796;SDS011;9526;52.612;13.300;2023-03-01T03:47:37;37.53;;;16.90;;
18796;SDS011;9526;52.612;13.300;2023-03-01T03:50:01;32.83;;;16.20;;
18796;SDS011;9526;52.612;13.300;2023-03-01T03:52:26;33.30;;;16.47;;
18796;SDS011;9526;52.612;13.300;2023-03-01T03:54:50;32.97;;;15.13;;
18796;SDS011;9526;52.612;13.300;2023-03-01T03:57:13;33.80;;;15.20;;
18796;SDS011;9526;52.612;13.300;2023-03-01T03:59:37;36.60;;;15.90;;
18796;SDS011;9526;52.612;13.300;2023-03-01T04:02:00;34.97;;;15.83;;
18796;SDS011;9526;52.612;13.300;2023-03-01T04:04:24;30.93;;;15.20;;
18796;SDS011;9526;52.612;13.300;2023-03-01T04:06:47;31.17;;;15.30;;
18796;SDS011;9526;52.612;13.300;2023-03-01T04:09:12;35.40;;;16.47;;
18796;SDS011;9526;52.612;13.300;2023-03-01T04:11:36;38.20;;;15.97;;
18796;SDS011;9526;52.612;13.300;2023-03-01T04:14:00;34.07;;;15.73;;
18796;SDS011;9526;52.612;13.300;2023-03-01T04:16:25;34.30;;;16.50;;
18796;SDS011;9526;52.612;13.300;2023-03-01T04:18:50;30.93;;;15.23;;
18796;SDS011;9526;52.612;13.300;2023-03-01T04:21:15;32.27;;;15.80;;
18796;SDS011;9526;52.612;13.300;2023-03-01T04:23:38;32.70;;;15.60;;
18796;SDS011;9526;52.612;13.300;2023-03-01T04:26:04;32.40;;;15.00;;
18796;SDS011;9526;52.612;13.300;2023-03-01T04:28:29;33.67;;;15.43;;
18796;SDS011;9526;52.612;13.300;2023-03-01T04:30:55;31.80;;;15.23;;
18796;SDS011;9526;52.612;13.300;2023-03-01T04:33:22;33.20;;;15.60;;
18796;SDS011;9526;52.612;13.300;2023-03-01T04:35:46;36.23;;;15.33;;
18796;SDS011;9526;52.612;13.300;2023-03-01T04:38:11;30.57;;;16.00;;
18796;SDS011;9526;52.612;13.300;2023-03-01T04:40:34;30.47;;;15.07;;
18796;SDS011;9526;52.612;13.300;2023-03-01T04:43:00;33.30;;;15.67;;
18796;SDS011;9526;52.612;13.300;2023-03-01T04:45:24;33.90;;;15.13;;
18796;SDS011;9526;52.612;13.300;2023-03-01T04:47:48;33.17;;;15.97;;
18796;SDS011;9526;52.612;13.300;2023-03-01T04:50:14;32.20;;;14.23;;
18796;SDS011;9526;52.612;13.300;2023-03-01T04:52:41;31.73;;;15.17;;
18796;SDS011;9526;52.612;13.300;2023-03-01T04:55:06;32.67;;;14.63;;
18796;SDS011;9526;52.612;13.300;2023-03-01T04:57:31;30.10;;;14.83;;
18796;SDS011;9526;52.612;13.300;2023-03-01T04:59:56;30.60;;;14.67;;
18796;SDS011;9526;52.612;13.300;2023-03-01T05:02:20;28.80;;;14.80;;
18796;SDS011;9526;52.612;13.300;2023-03-01T05:04:44;28.00;;;14.10;;
18796;SDS011;9526;52.612;13.300;2023-03-01T05:07:07;29.83;;;14.10;;
18796;SDS011;9526;52.612;13.300;2023-03-01T05:09:31;29.57;;;14.33;;
18796;SDS011;9526;52.612;13.300;2023-03-01T05:11:55;34.53;;;15.47;;
18796;SDS011;9526;52.612;13.300;2023-03-01T05:14:18;38.47;;;18.37;;
18796;SDS011;9526;52.612;13.300;2023-03-01T05:16:43;33.97;;;17.40;;
18796;SDS011;9526;52.612;13.300;2023-03-01T05:19:07;37.47;;;16.87;;
18796;SDS011;9526;52.612;13.300;2023-03-01T05:21:36;36.53;;;16.23;;
18796;SDS011;9526;52.612;13.300;2023-03-01T05:24:21;36.73;;;17.60;;
18796;SDS011;9526;52.612;13.300;2023-03-01T05:26:44;40.40;;;16.27;;
18796;SDS011;9526;52.612;13.300;2023-03-01T05:29:09;33.90;;;16.00;;
18796;SDS011;9526;52.612;13.300;2023-03-01T05:31:33;34.00;;;16.33;;
18796;SDS011;9526;52.612;13.300;2023-03-01T05:33:58;33.80;;;16.13;;
18796;SDS011;9526;52.612;13.300;2023-03-01T05:36:21;35.43;;;17.03;;
18796;SDS011;9526;52.612;13.300;2023-03-01T05:38:45;35.90;;;16.70;;
18796;SDS011;9526;52.612;13.300;2023-03-01T05:41:13;34.07;;;15.60;;
18796;SDS011;9526;52.612;13.300;2023-03-01T05:43:38;35.03;;;16.33;;
18796;SDS011;9526;52.612;13.300;2023-03-01T05:46:04;37.07;;;17.40;;
18796;SDS011;9526;52.612;13.300;2023-03-01T05:48:28;33.37;;;15.53;;
18796;SDS011;9526;52.612;13.300;2023-03-01T05:50:53;33.33;;;16.07;;
18796;SDS011;9526;52.612;13.300;2023-03-01T05:53:17;35.27;;;15.83;;
18796;SDS011;9526;52.612;13.300;2023-03-01T05:55:43;31.50;;;15.33;;
18796;SDS011;9526;52.612;13.300;2023-03-01T05:58:09;39.60;;;15.17;;
18796;SDS011;9526;52.612;13.300;2023-03-01T06:00:36;30.87;;;14.60;;
18796;SDS011;9526;52.612;13.300;2023-03-01T06:03:01;31.40;;;15.47;;
18796;SDS011;9526;52.612;13.300;2023-03-01T06:05:25;34.83;;;14.70;;
18796;SDS011;9526;52.612;13.300;2023-03-01T06:07:51;29.17;;;14.50;;
18796;SDS011;9526;52.612;13.300;2023-03-01T06:10:15;31.23;;;14.23;;
18796;SDS011;9526;52.612;13.300;2023-03-01T06:12:41;31.30;;;14.03;;
18796;SDS011;9526;52.612;13.300;2023-03-01T06:15:05;28.30;;;12.63;;
18796;SDS011;9526;52.612;13.300;2023-03-01T06:17:32;23.93;;;12.60;;
18796;SDS011;9526;52.612;13.300;2023-03-01T06:19:58;27.80;;;12.20;;
18796;SDS011;9526;52.612;13.300;2023-03-01T06:22:22;27.77;;;12.80;;
18796;SDS011;9526;52.612;13.300;2023-03-01T06:24:48;27.17;;;12.47;;
18796;SDS011;9526;52.612;13.300;2023-03-01T06:27:11;30.00;;;11.50;;
18796;SDS011;9526;52.612;13.300;2023-03-01T06:29:35;27.90;;;13.03;;
18796;SDS011;9526;52.612;13.300;2023-03-01T06:31:59;27.70;;;14.03;;
18796;SDS011;9526;52.612;13.300;2023-03-01T06:34:22;30.87;;;14.77;;
18796;SDS011;9526;52.612;13.300;2023-03-01T06:36:46;26.73;;;14.03;;
18796;SDS011;9526;52.612;13.300;2023-03-01T06:39:09;27.97;;;14.50;;
18796;SDS011;9526;52.612;13.300;2023-03-01T06:41:34;26.87;;;13.13;;
18796;SDS011;9526;52.612;13.300;2023-03-01T06:43:58;29.13;;;14.13;;
18796;SDS011;9526;52.612;13.300;2023-03-01T06:46:22;31.57;;;14.50;;
18796;SDS011;9526;52.612;13.300;2023-03-01T06:48:46;30.03;;;15.03;;
18796;SDS011;9526;52.612;13.300;2023-03-01T06:51:09;32.80;;;15.23;;
18796;SDS011;9526;52.612;13.300;2023-03-01T06:53:33;29.80;;;13.47;;
18796;SDS011;9526;52.612;13.300;2023-03-01T06:55:56;29.23;;;14.73;;
18796;SDS011;9526;52.612;13.300;2023-03-01T06:58:22;30.13;;;14.57;;
18796;SDS011;9526;52.612;13.300;2023-03-01T07:00:46;28.77;;;13.83;;
18796;SDS011;9526;52.612;13.300;2023-03-01T07:03:10;27.70;;;13.23;;
18796;SDS011;9526;52.612;13.300;2023-03-01T07:05:33;28.77;;;14.00;;
18796;SDS011;9526;52.612;13.300;2023-03-01T07:07:57;32.53;;;15.07;;
18796;SDS011;9526;52.612;13.300;2023-03-01T07:10:21;30.80;;;14.93;;
18796;SDS011;9526;52.612;13.300;2023-03-01T07:12:45;27.47;;;14.43;;
18796;SDS011;9526;52.612;13.300;2023-03-01T07:15:10;44.40;;;21.07;;
18796;SDS011;9526;52.612;13.300;2023-03-01T07:17:35;71.83;;;32.37;;
18796;SDS011;9526;52.612;13.300;2023-03-01T07:19:58;30.87;;;15.43;;
18796;SDS011;9526;52.612;13.300;2023-03-01T07:22:22;28.97;;;15.90;;
18796;SDS011;9526;52.612;13.300;2023-03-01T07:24:45;57.23;;;26.90;;
18796;SDS011;9526;52.612;13.300;2023-03-01T07:27:09;32.83;;;18.03;;
18796;SDS011;9526;52.612;13.300;2023-03-01T07:29:33;31.17;;;16.27;;
18796;SDS011;9526;52.612;13.300;2023-03-01T07:31:59;32.33;;;16.97;;
18796;SDS011;9526;52.612;13.300;2023-03-01T07:34:23;32.53;;;16.27;;
18796;SDS011;9526;52.612;13.300;2023-03-01T07:36:46;33.87;;;16.73;;
18796;SDS011;9526;52.612;13.300;2023-03-01T07:39:10;31.63;;;15.97;;
18796;SDS011;9526;52.612;13.300;2023-03-01T07:41:34;34.87;;;17.30;;
18796;SDS011;9526;52.612;13.300;2023-03-01T07:43:57;33.67;;;17.53;;
18796;SDS011;9526;52.612;13.300;2023-03-01T07:46:21;33.00;;;17.30;;
18796;SDS011;9526;52.612;13.300;2023-03-01T07:48:46;38.17;;;17.73;;
18796;SDS011;9526;52.612;13.300;2023-03-01T07:51:10;34.73;;;16.93;;
18796;SDS011;9526;52.612;13.300;2023-03-01T07:53:34;35.13;;;18.27;;
18796;SDS011;9526;52.612;13.300;2023-03-01T07:56:01;32.03;;;17.80;;
18796;SDS011;9526;52.612;13.300;2023-03-01T07:58:26;35.30;;;18.07;;
18796;SDS011;9526;52.612;13.300;2023-03-01T08:00:50;34.20;;;17.50;;
18796;SDS011;9526;52.612;13.300;2023-03-01T08:03:13;32.97;;;17.77;;
18796;SDS011;9526;52.612;13.300;2023-03-01T08:05:41;29.57;;;16.47;;
18796;SDS011;9526;52.612;13.300;2023-03-01T08:08:05;29.33;;;15.87;;
18796;SDS011;9526;52.612;13.300;2023-03-01T08:10:28;29.37;;;15.97;;
18796;SDS011;9526;52.612;13.300;2023-03-01T08:12:52;34.73;;;16.70;;
18796;SDS011;9526;52.612;13.300;2023-03-01T08:15:16;32.03;;;16.47;;
18796;SDS011;9526;52.612;13.300;2023-03-01T08:17:40;29.50;;;15.90;;
18796;SDS011;9526;52.612;13.300;2023-03-01T08:20:04;29.00;;;15.67;;
18796;SDS011;9526;52.612;13.300;2023-03-01T08:22:30;26.40;;;14.43;;
18796;SDS011;9526;52.612;13.300;2023-03-01T08:24:53;28.43;;;15.13;;
18796;SDS011;9526;52.612;13.300;2023-03-01T08:27:18;25.90;;;13.43;;
18796;SDS011;9526;52.612;13.300;2023-03-01T08:29:41;24.47;;;12.67;;
18796;SDS011;9526;52.612;13.300;2023-03-01T08:32:05;28.20;;;14.17;;
18796;SDS011;9526;52.612;13.300;2023-03-01T08:34:29;28.43;;;14.10;;
18796;SDS011;9526;52.612;13.300;2023-03-01T08:36:53;22.00;;;12.57;;
18796;SDS011;9526;52.612;13.300;2023-03-01T08:39:18;22.57;;;11.57;;
18796;SDS011;9526;52.612;13.300;2023-03-01T08:41:43;24.07;;;11.93;;
18796;SDS011;9526;52.612;13.300;2023-03-01T08:44:09;21.03;;;11.60;;
18796;SDS011;9526;52.612;13.300;2023-03-01T08:46:35;22.07;;;12.57;;
18796;SDS011;9526;52.612;13.300;2023-03-01T08:49:02;20.17;;;10.87;;
18796;SDS011;9526;52.612;13.300;2023-03-01T08:51:28;19.37;;;9.37;;
18796;SDS011;9526;52.612;13.300;2023-03-01T08:53:53;16.13;;;8.83;;
18796;SDS011;9526;52.612;13.300;2023-03-01T08:56:19;14.23;;;8.73;;
18796;SDS011;9526;52.612;13.300;2023-03-01T08:58:43;14.63;;;7.77;;
18796;SDS011;9526;52.612;13.300;2023-03-01T09:01:08;15.60;;;7.20;;
18796;SDS011;9526;52.612;13.300;2023-03-01T09:03:33;12.33;;;6.87;;
18796;SDS011;9526;52.612;13.300;2023-03-01T09:05:59;9.17;;;6.00;;
18796;SDS011;9526;52.612;13.300;2023-03-01T09:08:23;9.80;;;5.40;;
18796;SDS011;9526;52.612;13.300;2023-03-01T09:10:47;8.50;;;5.23;;
18796;SDS011;9526;52.612;13.300;2023-03-01T09:13:12;8.30;;;4.90;;
18796;SDS011;9526;52.612;13.300;2023-03-01T09:15:36;10.02;;;4.88;;
18796;SDS011;9526;52.612;13.300;2023-03-01T09:18:00;9.27;;;5.10;;
18796;SDS011;9526;52.612;13.300;2023-03-01T09:20:24;9.93;;;5.35;;
18796;SDS011;9526;52.612;13.300;2023-03-01T09:22:47;9.50;;;5.05;;
18796;SDS011;9526;52.612;13.300;2023-03-01T09:25:11;8.13;;;5.05;;
18796;SDS011;9526;52.612;13.300;2023-03-01T09:27:34;6.40;;;4.40;;
18796;SDS011;9526;52.612;13.300;2023-03-01T09:29:59;12.18;;;5.15;;
18796;SDS011;9526;52.612;13.300;2023-03-01T09:32:26;8.57;;;5.70;;
18796;SDS011;9526;52.612;13.300;2023-03-01T09:34:49;7.78;;;5.25;;
18796;SDS011;9526;52.612;13.300;2023-03-01T09:37:27;10.65;;;5.50;;
18796;SDS011;9526;52.612;13.300;2023-03-01T09:39:50;9.40;;;5.43;;
18796;SDS011;9526;52.612;13.300;2023-03-01T09:42:14;8.10;;;5.55;;
18796;SDS011;9526;52.612;13.300;2023-03-01T09:44:40;9.02;;;5.65;;
18796;SDS011;9526;52.612;13.300;2023-03-01T09:47:12;7.40;;;5.07;;
18796;SDS011;9526;52.612;13.300;2023-03-01T09:49:41;6.43;;;4.68;;
18796;SDS011;9526;52.612;13.300;2023-03-01T09:52:12;8.63;;;4.47;;
18796;SDS011;9526;52.612;13.300;2023-03-01T09:54:46;8.82;;;5.10;;
18796;SDS011;9526;52.612;13.300;2023-03-01T09:57:13;5.32;;;4.13;;
18796;SDS011;9526;52.612;13.300;2023-03-01T09:59:49;7.63;;;4.88;;
18796;SDS011;9526;52.612;13.300;2023-03-01T10:02:29;7.47;;;4.80;;
18796;SDS011;9526;52.612;13.300;2023-03-01T10:05:05;7.13;;;4.78;;
18796;SDS011;9526;52.612;13.300;2023-03-01T10:07:43;6.57;;;3.83;;
18796;SDS011;9526;52.612;13.300;2023-03-01T10:10:21;6.20;;;4.30;;
18796;SDS011;9526;52.612;13.300;2023-03-01T10:12:51;7.22;;;4.50;;
18796;SDS011;9526;52.612;13.300;2023-03-01T10:15:17;7.03;;;4.20;;
18796;SDS011;9526;52.612;13.300;2023-03-01T10:17:51;6.82;;;4.43;;
18796;SDS011;9526;52.612;13.300;2023-03-01T10:20:22;7.32;;;4.40;;
18796;SDS011;9526;52.612;13.300;2023-03-01T10:22:47;7.50;;;4.80;;
18796;SDS011;9526;52.612;13.300;2023-03-01T10:25:14;6.90;;;4.57;;
18796;SDS011;9526;52.612;13.300;2023-03-01T10:27:41;7.38;;;4.47;;
18796;SDS011;9526;52.612;13.300;2023-03-01T10:30:17;8.38;;;4.60;;
18796;SDS011;9526;52.612;13.300;2023-03-01T10:32:45;5.85;;;3.67;;
18796;SDS011;9526;52.612;13.300;2023-03-01T10:35:16;6.57;;;4.15;;
18796;SDS011;9526;52.612;13.300;2023-03-01T10:37:46;6.55;;;4.00;;
18796;SDS011;9526;52.612;13.300;2023-03-01T10:40:21;8.13;;;4.10;;
18796;SDS011;9526;52.612;13.300;2023-03-01T10:42:46;6.88;;;4.43;;
18796;SDS011;9526;52.612;13.300;2023-03-01T10:45:15;7.32;;;4.07;;
18796;SDS011;9526;52.612;13.300;2023-03-01T10:47:55;6.72;;;4.50;;
18796;SDS011;9526;52.612;13.300;2023-03-01T10:50:36;9.00;;;4.13;;
18796;SDS011;9526;52.612;13.300;2023-03-01T10:53:04;5.80;;;3.60;;
18796;SDS011;9526;52.612;13.300;2023-03-01T10:55:30;8.82;;;4.10;;
18796;SDS011;9526;52.612;13.300;2023-03-01T10:58:08;6.43;;;4.05;;
18796;SDS011;9526;52.612;13.300;2023-03-01T11:00:48;7.38;;;3.55;;
18796;SDS011;9526;52.612;13.300;2023-03-01T11:03:16;7.72;;;4.25;;
18796;SDS011;9526;52.612;13.300;2023-03-01T11:05:52;6.00;;;4.05;;
18796;SDS011;9526;52.612;13.300;2023-03-01T11:08:30;6.63;;;3.92;;
18796;SDS011;9526;52.612;13.300;2023-03-01T11:11:03;8.80;;;4.63;;
18796;SDS011;9526;52.612;13.300;2023-03-01T11:13:30;7.45;;;4.13;;
18796;SDS011;9526;52.612;13.300;2023-03-01T11:15:58;9.38;;;4.57;;
18796;SDS011;9526;52.612;13.300;2023-03-01T11:18:25;6.00;;;3.45;;
18796;SDS011;9526;52.612;13.300;2023-03-01T11:21:07;7.30;;;3.92;;
18796;SDS011;9526;52.612;13.300;2023-03-01T11:23:32;5.07;;;3.63;;
18796;SDS011;9526;52.612;13.300;2023-03-01T11:25:57;7.05;;;4.07;;
18796;SDS011;9526;52.612;13.300;2023-03-01T11:28:27;9.40;;;4.60;;
18796;SDS011;9526;52.612;13.300;2023-03-01T11:30:53;7.40;;;4.15;;
18796;SDS011;9526;52.612;13.300;2023-03-01T11:33:33;6.03;;;3.92;;
18796;SDS011;9526;52.612;13.300;2023-03-01T11:36:03;5.57;;;3.53;;
18796;SDS011;9526;52.612;13.300;2023-03-01T11:38:32;6.05;;;3.90;;
18796;SDS011;9526;52.612;13.300;2023-03-01T11:40:59;5.50;;;3.88;;
18796;SDS011;9526;52.612;13.300;2023-03-01T11:43:32;4.82;;;3.72;;
18796;SDS011;9526;52.612;13.300;2023-03-01T11:46:19;5.97;;;3.70;;
18796;SDS011;9526;52.612;13.300;2023-03-01T11:49:39;5.70;;;3.35;;
18796;SDS011;9526;52.612;13.300;2023-03-01T11:52:30;7.18;;;4.32;;
18796;SDS011;9526;52.612;13.300;2023-03-01T11:55:15;6.60;;;3.75;;
18796;SDS011;9526;52.612;13.300;2023-03-01T11:57:55;4.90;;;3.60;;
18796;SDS011;9526;52.612;13.300;2023-03-01T12:00:41;6.85;;;3.60;;
18796;SDS011;9526;52.612;13.300;2023-03-01T12:03:27;6.75;;;4.00;;
18796;SDS011;9526;52.612;13.300;2023-03-01T12:06:12;6.45;;;4.20;;
18796;SDS011;9526;52.612;13.300;2023-03-01T12:08:54;7.95;;;3.97;;
18796;SDS011;9526;52.612;13.300;2023-03-01T12:11:37;5.88;;;3.83;;
18796;SDS011;9526;52.612;13.300;2023-03-01T12:14:25;5.68;;;3.95;;
18796;SDS011;9526;52.612;13.300;2023-03-01T12:17:07;6.88;;;3.97;;
18796;SDS011;9526;52.612;13.300;2023-03-01T12:20:12;7.15;;;3.80;;
18796;SDS011;9526;52.612;13.300;2023-03-01T12:22:48;6.65;;;4.20;;
18796;SDS011;9526;52.612;13.300;2023-03-01T12:25:41;5.82;;;3.88;;
18796;SDS011;9526;52.612;13.300;2023-03-01T12:28:19;8.88;;;4.75;;
18796;SDS011;9526;52.612;13.300;2023-03-01T12:31:22;8.10;;;3.92;;
18796;SDS011;9526;52.612;13.300;2023-03-01T12:34:31;5.07;;;3.58;;
18796;SDS011;9526;52.612;13.300;2023-03-01T12:37:13;7.28;;;4.15;;
18796;SDS011;9526;52.612;13.300;2023-03-01T12:40:03;6.95;;;4.22;;
18796;SDS011;9526;52.612;13.300;2023-03-01T12:42:47;7.72;;;4.10;;
18796;SDS011;9526;52.612;13.300;2023-03-01T12:45:26;8.50;;;4.22;;
18796;SDS011;9526;52.612;13.300;2023-03-01T12:48:08;7.70;;;3.88;;
18796;SDS011;9526;52.612;13.300;2023-03-01T12:50:47;5.75;;;3.60;;
18796;SDS011;9526;52.612;13.300;2023-03-01T12:53:19;8.48;;;4.03;;
18796;SDS011;9526;52.612;13.300;2023-03-01T12:55:47;5.60;;;3.72;;
18796;SDS011;9526;52.612;13.300;2023-03-01T12:58:16;7.20;;;4.00;;
18796;SDS011;9526;52.612;13.300;2023-03-01T13:01:03;6.65;;;3.72;;
18796;SDS011;9526;52.612;13.300;2023-03-01T13:03:48;7.28;;;3.90;;
18796;SDS011;9526;52.612;13.300;2023-03-01T13:06:41;5.93;;;3.33;;
18796;SDS011;9526;52.612;13.300;2023-03-01T13:09:19;7.95;;;3.63;;
18796;SDS011;9526;52.612;13.300;2023-03-01T13:11:50;8.60;;;3.80;;
18796;SDS011;9526;52.612;13.300;2023-03-01T13:17:00;6.57;;;3.13;;
18796;SDS011;9526;52.612;13.300;2023-03-01T13:19:25;5.68;;;3.50;;
18796;SDS011;9526;52.612;13.300;2023-03-01T13:21:52;8.32;;;4.10;;
18796;SDS011;9526;52.612;13.300;2023-03-01T13:24:23;5.70;;;3.72;;
18796;SDS011;9526;52.612;13.300;2023-03-01T13:27:10;9.25;;;4.15;;
18796;SDS011;9526;52.612;13.300;2023-03-01T13:29:46;6.07;;;3.78;;
18796;SDS011;9526;52.612;13.300;2023-03-01T13:32:22;6.25;;;3.65;;
18796;SDS011;9526;52.612;13.300;2023-03-01T13:35:08;6.20;;;3.67;;
18796;SDS011;9526;52.612;13.300;2023-03-01T13:41:01;7.93;;;3.55;;
18796;SDS011;9526;52.612;13.300;2023-03-01T13:43:30;5.57;;;3.00;;
18796;SDS011;9526;52.612;13.300;2023-03-01T13:45:57;3.95;;;2.63;;
18796;SDS011;9526;52.612;13.300;2023-03-01T13:48:23;6.15;;;2.65;;
18796;SDS011;9526;52.612;13.300;2023-03-01T13:50:52;4.18;;;2.50;;
18796;SDS011;9526;52.612;13.300;2023-03-01T13:53:21;4.07;;;2.60;;
18796;SDS011;9526;52.612;13.300;2023-03-01T13:55:48;6.15;;;2.80;;
18796;SDS011;9526;52.612;13.300;2023-03-01T13:58:21;4.20;;;2.15;;
18796;SDS011;9526;52.612;13.300;2023-03-01T14:00:54;4.30;;;2.45;;
18796;SDS011;9526;52.612;13.300;2023-03-01T14:03:20;3.03;;;2.03;;
18796;SDS011;9526;52.612;13.300;2023-03-01T14:05:44;4.82;;;2.00;;
18796;SDS011;9526;52.612;13.300;2023-03-01T14:08:35;4.95;;;2.20;;
18796;SDS011;9526;52.612;13.300;2023-03-01T14:11:18;5.40;;;2.28;;
18796;SDS011;9526;52.612;13.300;2023-03-01T14:14:06;4.55;;;2.00;;
18796;SDS011;9526;52.612;13.300;2023-03-01T14:16:47;5.28;;;1.92;;
18796;SDS011;9526;52.612;13.300;2023-03-01T14:19:21;5.05;;;2.53;;
18796;SDS011;9526;52.612;13.300;2023-03-01T14:21:58;8.80;;;2.42;;
18796;SDS011;9526;52.612;13.300;2023-03-01T14:24:29;3.65;;;2.10;;
18796;SDS011;9526;52.612;13.300;2023-03-01T14:27:02;3.45;;;2.08;;
18796;SDS011;9526;52.612;13.300;2023-03-01T14:29:27;3.33;;;1.75;;
18796;SDS011;9526;52.612;13.300;2023-03-01T14:32:08;6.93;;;1.98;;
18796;SDS011;9526;52.612;13.300;2023-03-01T14:34:42;4.70;;;1.98;;
18796;SDS011;9526;52.612;13.300;2023-03-01T14:37:10;3.97;;;2.00;;
18796;SDS011;9526;52.612;13.300;2023-03-01T14:39:41;3.97;;;1.88;;
18796;SDS011;9526;52.612;13.300;2023-03-01T14:42:05;4.93;;;1.92;;
18796;SDS011;9526;52.612;13.300;2023-03-01T14:44:37;3.20;;;2.38;;